sensor_id;sensor_type;location;lat;lon;timestamp;P1;durP1;ratioP1;P2;durP2;ratioP2
1693;SDS011;844;47.058;15.472;2023-02-18T00:01:09;16.73;;;15.13;;
1693;SDS011;844;47.058;15.472;2023-02-18T00:03:41;17.37;;;14.97;;
1693;SDS011;844;47.058;15.472;2023-02-18T00:06:13;17.10;;;14.80;;
1693;SDS011;844;47.058;15.472;2023-02-18T00:08:44;14.80;;;12.90;;
1693;SDS011;844;47.058;15.472;2023-02-18T00:11:16;16.07;;;14.37;;
1693;SDS011;844;47.058;15.472;2023-02-18T00:13:50;15.77;;;13.53;;
1693;SDS011;844;47.058;15.472;2023-02-18T00:16:23;14.83;;;13.20;;
1693;SDS011;844;47.058;15.472;2023-02-18T00:18:55;14.03;;;12.23;;
1693;SDS011;844;47.058;15.472;2023-02-18T00:21:27;14.53;;;12.57;;
1693;SDS011;844;47.058;15.472;2023-02-18T00:23:58;14.30;;;12.60;;
1693;SDS011;844;47.058;15.472;2023-02-18T00:26:28;14.50;;;12.83;;
1693;SDS011;844;47.058;15.472;2023-02-18T00:28:58;16.87;;;14.03;;
1693;SDS011;844;47.058;15.472;2023-02-18T00:31:31;14.43;;;11.97;;
1693;SDS011;844;47.058;15.472;2023-02-18T00:34:03;13.40;;;11.90;;
1693;SDS011;844;47.058;15.472;2023-02-18T00:36:34;12.13;;;10.90;;
1693;SDS011;844;47.058;15.472;2023-02-18T00:39:06;11.80;;;10.70;;
1693;SDS011;844;47.058;15.472;2023-02-18T00:41:37;15.00;;;12.13;;
1693;SDS011;844;47.058;15.472;2023-02-18T00:44:07;13.63;;;11.30;;
1693;SDS011;844;47.058;15.472;2023-02-18T00:46:39;11.80;;;9.83;;
1693;SDS011;844;47.058;15.472;2023-02-18T00:49:10;12.87;;;11.30;;
1693;SDS011;844;47.058;15.472;2023-02-18T00:51:41;18.43;;;12.53;;
1693;SDS011;844;47.058;15.472;2023-02-18T00:54:11;16.50;;;12.20;;
1693;SDS011;844;47.058;15.472;2023-02-18T00:56:42;10.97;;;9.70;;
1693;SDS011;844;47.058;15.472;2023-02-18T00:59:13;12.33;;;10.37;;
1693;SDS011;844;47.058;15.472;2023-02-18T01:01:45;11.60;;;10.40;;
1693;SDS011;844;47.058;15.472;2023-02-18T01:04:15;13.27;;;10.27;;
1693;SDS011;844;47.058;15.472;2023-02-18T01:06:46;10.97;;;9.87;;
1693;SDS011;844;47.058;15.472;2023-02-18T01:09:16;13.13;;;9.37;;
1693;SDS011;844;47.058;15.472;2023-02-18T01:11:46;11.43;;;8.60;;
1693;SDS011;844;47.058;15.472;2023-02-18T01:14:16;11.17;;;9.97;;
1693;SDS011;844;47.058;15.472;2023-02-18T01:16:48;14.33;;;9.60;;
1693;SDS011;844;47.058;15.472;2023-02-18T01:19:18;11.20;;;9.57;;
1693;SDS011;844;47.058;15.472;2023-02-18T01:21:49;14.40;;;9.67;;
1693;SDS011;844;47.058;15.472;2023-02-18T01:24:20;11.73;;;8.60;;
1693;SDS011;844;47.058;15.472;2023-02-18T01:26:51;8.90;;;7.90;;
1693;SDS011;844;47.058;15.472;2023-02-18T01:29:21;10.30;;;8.13;;
1693;SDS011;844;47.058;15.472;2023-02-18T01:31:53;13.17;;;8.33;;
1693;SDS011;844;47.058;15.472;2023-02-18T01:34:23;10.10;;;8.10;;
1693;SDS011;844;47.058;15.472;2023-02-18T01:36:54;13.50;;;8.13;;
1693;SDS011;844;47.058;15.472;2023-02-18T01:39:25;9.80;;;8.50;;
1693;SDS011;844;47.058;15.472;2023-02-18T01:41:57;13.33;;;8.00;;
1693;SDS011;844;47.058;15.472;2023-02-18T01:44:27;9.60;;;8.70;;
1693;SDS011;844;47.058;15.472;2023-02-18T01:46:58;13.33;;;8.60;;
1693;SDS011;844;47.058;15.472;2023-02-18T01:49:29;8.90;;;7.13;;
1693;SDS011;844;47.058;15.472;2023-02-18T01:52:04;8.07;;;7.27;;
1693;SDS011;844;47.058;15.472;2023-02-18T01:54:38;8.87;;;8.07;;
1693;SDS011;844;47.058;15.472;2023-02-18T01:57:10;10.40;;;8.50;;
1693;SDS011;844;47.058;15.472;2023-02-18T01:59:42;9.70;;;6.90;;
1693;SDS011;844;47.058;15.472;2023-02-18T02:02:26;9.40;;;7.30;;
1693;SDS011;844;47.058;15.472;2023-02-18T02:04:59;9.03;;;7.47;;
1693;SDS011;844;47.058;15.472;2023-02-18T02:07:30;9.40;;;7.77;;
1693;SDS011;844;47.058;15.472;2023-02-18T02:10:01;7.87;;;7.07;;
1693;SDS011;844;47.058;15.472;2023-02-18T02:12:43;12.50;;;7.30;;
1693;SDS011;844;47.058;15.472;2023-02-18T02:15:27;10.10;;;7.23;;
1693;SDS011;844;47.058;15.472;2023-02-18T02:21:23;10.37;;;7.70;;
1693;SDS011;844;47.058;15.472;2023-02-18T02:24:26;6.73;;;5.83;;
1693;SDS011;844;47.058;15.472;2023-02-18T02:27:28;12.17;;;7.33;;
1693;SDS011;844;47.058;15.472;2023-02-18T02:33:37;11.63;;;7.53;;
1693;SDS011;844;47.058;15.472;2023-02-18T02:36:28;9.40;;;7.53;;
1693;SDS011;844;47.058;15.472;2023-02-18T02:39:04;8.93;;;7.27;;
1693;SDS011;844;47.058;15.472;2023-02-18T02:41:43;8.67;;;7.43;;
1693;SDS011;844;47.058;15.472;2023-02-18T02:44:18;10.07;;;8.33;;
1693;SDS011;844;47.058;15.472;2023-02-18T02:46:51;9.60;;;8.10;;
1693;SDS011;844;47.058;15.472;2023-02-18T02:49:27;8.53;;;7.47;;
1693;SDS011;844;47.058;15.472;2023-02-18T02:52:06;11.03;;;8.37;;
1693;SDS011;844;47.058;15.472;2023-02-18T02:54:41;8.10;;;7.30;;
1693;SDS011;844;47.058;15.472;2023-02-18T03:00:20;9.20;;;8.30;;
1693;SDS011;844;47.058;15.472;2023-02-18T03:03:08;9.03;;;8.10;;
1693;SDS011;844;47.058;15.472;2023-02-18T03:06:03;8.63;;;7.77;;
1693;SDS011;844;47.058;15.472;2023-02-18T03:08:48;15.83;;;7.57;;
1693;SDS011;844;47.058;15.472;2023-02-18T03:11:23;14.73;;;8.33;;
1693;SDS011;844;47.058;15.472;2023-02-18T03:13:56;9.30;;;7.87;;
1693;SDS011;844;47.058;15.472;2023-02-18T03:16:34;8.17;;;6.80;;
1693;SDS011;844;47.058;15.472;2023-02-18T03:19:09;8.27;;;7.47;;
1693;SDS011;844;47.058;15.472;2023-02-18T03:21:47;9.37;;;7.37;;
1693;SDS011;844;47.058;15.472;2023-02-18T03:24:22;9.43;;;7.83;;
1693;SDS011;844;47.058;15.472;2023-02-18T03:26:55;8.13;;;6.67;;
1693;SDS011;844;47.058;15.472;2023-02-18T03:29:29;7.93;;;6.13;;
1693;SDS011;844;47.058;15.472;2023-02-18T03:32:00;9.10;;;7.80;;
1693;SDS011;844;47.058;15.472;2023-02-18T03:34:35;8.83;;;7.70;;
1693;SDS011;844;47.058;15.472;2023-02-18T03:37:08;9.77;;;8.03;;
1693;SDS011;844;47.058;15.472;2023-02-18T03:39:42;8.57;;;7.30;;
1693;SDS011;844;47.058;15.472;2023-02-18T03:42:14;12.40;;;7.20;;
1693;SDS011;844;47.058;15.472;2023-02-18T03:44:45;8.97;;;7.83;;
1693;SDS011;844;47.058;15.472;2023-02-18T03:47:15;8.30;;;7.50;;
1693;SDS011;844;47.058;15.472;2023-02-18T03:49:45;10.13;;;8.07;;
1693;SDS011;844;47.058;15.472;2023-02-18T03:52:15;7.57;;;6.87;;
1693;SDS011;844;47.058;15.472;2023-02-18T03:54:47;9.30;;;8.30;;
1693;SDS011;844;47.058;15.472;2023-02-18T03:57:17;7.93;;;6.93;;
1693;SDS011;844;47.058;15.472;2023-02-18T03:59:47;10.53;;;7.80;;
1693;SDS011;844;47.058;15.472;2023-02-18T04:02:18;8.10;;;7.30;;
1693;SDS011;844;47.058;15.472;2023-02-18T04:04:50;9.80;;;8.07;;
1693;SDS011;844;47.058;15.472;2023-02-18T04:07:21;8.87;;;7.73;;
1693;SDS011;844;47.058;15.472;2023-02-18T04:09:54;7.80;;;6.40;;
1693;SDS011;844;47.058;15.472;2023-02-18T04:12:25;7.10;;;6.43;;
1693;SDS011;844;47.058;15.472;2023-02-18T04:14:56;8.27;;;7.43;;
1693;SDS011;844;47.058;15.472;2023-02-18T04:17:26;8.83;;;7.90;;
1693;SDS011;844;47.058;15.472;2023-02-18T04:19:56;7.80;;;6.60;;
1693;SDS011;844;47.058;15.472;2023-02-18T04:22:26;8.00;;;7.13;;
1693;SDS011;844;47.058;15.472;2023-02-18T04:24:58;6.47;;;5.87;;
1693;SDS011;844;47.058;15.472;2023-02-18T04:27:29;8.57;;;7.53;;
1693;SDS011;844;47.058;15.472;2023-02-18T04:30:00;10.27;;;7.47;;
1693;SDS011;844;47.058;15.472;2023-02-18T04:32:30;8.27;;;7.47;;
1693;SDS011;844;47.058;15.472;2023-02-18T04:35:00;12.23;;;7.80;;
1693;SDS011;844;47.058;15.472;2023-02-18T04:37:30;10.20;;;8.23;;
1693;SDS011;844;47.058;15.472;2023-02-18T04:40:04;8.30;;;7.27;;
1693;SDS011;844;47.058;15.472;2023-02-18T04:42:35;8.17;;;7.30;;
1693;SDS011;844;47.058;15.472;2023-02-18T04:45:07;9.70;;;8.00;;
1693;SDS011;844;47.058;15.472;2023-02-18T04:47:38;8.03;;;6.83;;
1693;SDS011;844;47.058;15.472;2023-02-18T04:50:09;7.50;;;6.90;;
1693;SDS011;844;47.058;15.472;2023-02-18T04:52:39;9.00;;;7.40;;
1693;SDS011;844;47.058;15.472;2023-02-18T04:55:11;12.70;;;7.63;;
1693;SDS011;844;47.058;15.472;2023-02-18T04:57:41;9.20;;;7.30;;
1693;SDS011;844;47.058;15.472;2023-02-18T05:00:14;14.90;;;7.97;;
1693;SDS011;844;47.058;15.472;2023-02-18T05:02:46;8.87;;;7.17;;
1693;SDS011;844;47.058;15.472;2023-02-18T05:05:18;9.37;;;7.97;;
1693;SDS011;844;47.058;15.472;2023-02-18T05:07:47;7.03;;;6.33;;
1693;SDS011;844;47.058;15.472;2023-02-18T05:10:19;11.13;;;10.13;;
1693;SDS011;844;47.058;15.472;2023-02-18T05:12:49;9.27;;;8.20;;
1693;SDS011;844;47.058;15.472;2023-02-18T05:15:19;8.57;;;7.17;;
1693;SDS011;844;47.058;15.472;2023-02-18T05:17:48;10.20;;;7.80;;
1693;SDS011;844;47.058;15.472;2023-02-18T05:20:19;12.13;;;7.97;;
1693;SDS011;844;47.058;15.472;2023-02-18T05:22:49;7.67;;;6.93;;
1693;SDS011;844;47.058;15.472;2023-02-18T05:25:21;10.07;;;7.30;;
1693;SDS011;844;47.058;15.472;2023-02-18T05:27:51;8.00;;;7.20;;
1693;SDS011;844;47.058;15.472;2023-02-18T05:30:21;16.67;;;6.80;;
1693;SDS011;844;47.058;15.472;2023-02-18T05:32:51;9.70;;;7.60;;
1693;SDS011;844;47.058;15.472;2023-02-18T05:35:21;8.67;;;7.20;;
1693;SDS011;844;47.058;15.472;2023-02-18T05:37:52;7.40;;;6.70;;
1693;SDS011;844;47.058;15.472;2023-02-18T05:40:23;8.63;;;7.33;;
1693;SDS011;844;47.058;15.472;2023-02-18T05:42:54;8.40;;;7.30;;
1693;SDS011;844;47.058;15.472;2023-02-18T05:45:24;7.70;;;6.90;;
1693;SDS011;844;47.058;15.472;2023-02-18T05:47:54;9.53;;;7.53;;
1693;SDS011;844;47.058;15.472;2023-02-18T05:50:25;8.70;;;7.50;;
1693;SDS011;844;47.058;15.472;2023-02-18T05:52:55;9.00;;;6.77;;
1693;SDS011;844;47.058;15.472;2023-02-18T05:55:27;10.83;;;6.80;;
1693;SDS011;844;47.058;15.472;2023-02-18T05:57:57;8.60;;;6.63;;
1693;SDS011;844;47.058;15.472;2023-02-18T06:00:28;12.60;;;8.43;;
1693;SDS011;844;47.058;15.472;2023-02-18T06:02:58;7.33;;;6.63;;
1693;SDS011;844;47.058;15.472;2023-02-18T06:05:29;9.83;;;7.70;;
1693;SDS011;844;47.058;15.472;2023-02-18T06:07:59;7.13;;;6.20;;
1693;SDS011;844;47.058;15.472;2023-02-18T06:10:32;7.57;;;6.87;;
1693;SDS011;844;47.058;15.472;2023-02-18T06:13:02;8.10;;;7.23;;
1693;SDS011;844;47.058;15.472;2023-02-18T06:15:32;10.90;;;8.50;;
1693;SDS011;844;47.058;15.472;2023-02-18T06:18:02;8.57;;;7.03;;
1693;SDS011;844;47.058;15.472;2023-02-18T06:20:35;9.13;;;6.70;;
1693;SDS011;844;47.058;15.472;2023-02-18T06:23:05;8.13;;;7.30;;
1693;SDS011;844;47.058;15.472;2023-02-18T06:25:39;8.67;;;7.30;;
1693;SDS011;844;47.058;15.472;2023-02-18T06:28:10;7.50;;;6.80;;
1693;SDS011;844;47.058;15.472;2023-02-18T06:30:41;10.07;;;7.77;;
1693;SDS011;844;47.058;15.472;2023-02-18T06:33:12;9.93;;;8.33;;
1693;SDS011;844;47.058;15.472;2023-02-18T06:35:50;10.33;;;7.90;;
1693;SDS011;844;47.058;15.472;2023-02-18T06:38:22;10.40;;;7.93;;
1693;SDS011;844;47.058;15.472;2023-02-18T06:40:54;8.80;;;7.90;;
1693;SDS011;844;47.058;15.472;2023-02-18T06:43:25;8.47;;;7.57;;
1693;SDS011;844;47.058;15.472;2023-02-18T06:45:56;8.67;;;7.80;;
1693;SDS011;844;47.058;15.472;2023-02-18T06:48:26;9.70;;;7.50;;
1693;SDS011;844;47.058;15.472;2023-02-18T06:50:56;10.03;;;8.77;;
1693;SDS011;844;47.058;15.472;2023-02-18T06:53:27;7.77;;;6.70;;
1693;SDS011;844;47.058;15.472;2023-02-18T06:55:59;7.23;;;6.63;;
1693;SDS011;844;47.058;15.472;2023-02-18T06:58:29;9.30;;;7.47;;
1693;SDS011;844;47.058;15.472;2023-02-18T07:01:02;9.00;;;7.40;;
1693;SDS011;844;47.058;15.472;2023-02-18T07:03:33;11.70;;;8.20;;
1693;SDS011;844;47.058;15.472;2023-02-18T07:06:08;9.17;;;7.23;;
1693;SDS011;844;47.058;15.472;2023-02-18T07:08:38;8.97;;;7.73;;
1693;SDS011;844;47.058;15.472;2023-02-18T07:11:11;8.20;;;7.33;;
1693;SDS011;844;47.058;15.472;2023-02-18T07:13:41;8.57;;;7.77;;
1693;SDS011;844;47.058;15.472;2023-02-18T07:16:12;9.37;;;8.40;;
1693;SDS011;844;47.058;15.472;2023-02-18T07:18:42;8.73;;;7.83;;
1693;SDS011;844;47.058;15.472;2023-02-18T07:21:14;9.00;;;8.10;;
1693;SDS011;844;47.058;15.472;2023-02-18T07:23:44;9.63;;;7.57;;
1693;SDS011;844;47.058;15.472;2023-02-18T07:26:16;8.63;;;7.80;;
1693;SDS011;844;47.058;15.472;2023-02-18T07:28:46;8.23;;;7.43;;
1693;SDS011;844;47.058;15.472;2023-02-18T07:31:17;9.87;;;8.87;;
1693;SDS011;844;47.058;15.472;2023-02-18T07:33:47;9.97;;;9.00;;
1693;SDS011;844;47.058;15.472;2023-02-18T07:36:18;9.07;;;7.10;;
1693;SDS011;844;47.058;15.472;2023-02-18T07:38:49;8.17;;;7.47;;
1693;SDS011;844;47.058;15.472;2023-02-18T07:41:21;11.47;;;8.07;;
1693;SDS011;844;47.058;15.472;2023-02-18T07:43:52;10.97;;;9.07;;
1693;SDS011;844;47.058;15.472;2023-02-18T07:46:23;9.30;;;7.43;;
1693;SDS011;844;47.058;15.472;2023-02-18T07:48:55;10.53;;;7.87;;
1693;SDS011;844;47.058;15.472;2023-02-18T07:51:25;9.03;;;7.07;;
1693;SDS011;844;47.058;15.472;2023-02-18T07:53:56;10.07;;;7.10;;
1693;SDS011;844;47.058;15.472;2023-02-18T07:56:28;10.70;;;8.00;;
1693;SDS011;844;47.058;15.472;2023-02-18T07:58:58;9.33;;;8.00;;
1693;SDS011;844;47.058;15.472;2023-02-18T08:01:29;17.27;;;7.30;;
1693;SDS011;844;47.058;15.472;2023-02-18T08:04:01;7.50;;;6.80;;
1693;SDS011;844;47.058;15.472;2023-02-18T08:06:35;9.00;;;7.00;;
1693;SDS011;844;47.058;15.472;2023-02-18T08:09:08;8.93;;;8.10;;
1693;SDS011;844;47.058;15.472;2023-02-18T08:11:43;12.27;;;8.70;;
1693;SDS011;844;47.058;15.472;2023-02-18T08:14:13;9.57;;;8.67;;
1693;SDS011;844;47.058;15.472;2023-02-18T08:16:43;13.00;;;9.63;;
1693;SDS011;844;47.058;15.472;2023-02-18T08:19:14;12.00;;;8.13;;
1693;SDS011;844;47.058;15.472;2023-02-18T08:21:45;10.70;;;7.27;;
1693;SDS011;844;47.058;15.472;2023-02-18T08:24:16;7.77;;;7.03;;
1693;SDS011;844;47.058;15.472;2023-02-18T08:26:48;10.43;;;6.83;;
1693;SDS011;844;47.058;15.472;2023-02-18T08:29:27;9.63;;;7.40;;
1693;SDS011;844;47.058;15.472;2023-02-18T08:31:57;8.50;;;7.60;;
1693;SDS011;844;47.058;15.472;2023-02-18T08:34:28;10.50;;;7.17;;
1693;SDS011;844;47.058;15.472;2023-02-18T08:36:58;10.27;;;7.27;;
1693;SDS011;844;47.058;15.472;2023-02-18T08:39:32;9.80;;;8.27;;
1693;SDS011;844;47.058;15.472;2023-02-18T08:42:07;8.53;;;7.30;;
1693;SDS011;844;47.058;15.472;2023-02-18T08:44:37;12.57;;;9.30;;
1693;SDS011;844;47.058;15.472;2023-02-18T08:47:08;12.27;;;9.20;;
1693;SDS011;844;47.058;15.472;2023-02-18T08:49:59;10.53;;;8.93;;
1693;SDS011;844;47.058;15.472;2023-02-18T08:52:30;10.20;;;7.67;;
1693;SDS011;844;47.058;15.472;2023-02-18T08:55:00;9.60;;;8.23;;
1693;SDS011;844;47.058;15.472;2023-02-18T08:57:32;9.30;;;8.43;;
1693;SDS011;844;47.058;15.472;2023-02-18T09:00:03;12.80;;;10.13;;
1693;SDS011;844;47.058;15.472;2023-02-18T09:02:34;10.83;;;9.50;;
1693;SDS011;844;47.058;15.472;2023-02-18T09:05:04;10.93;;;9.73;;
1693;SDS011;844;47.058;15.472;2023-02-18T09:07:36;13.90;;;11.57;;
1693;SDS011;844;47.058;15.472;2023-02-18T09:10:06;13.83;;;9.80;;
1693;SDS011;844;47.058;15.472;2023-02-18T09:12:39;16.77;;;13.37;;
1693;SDS011;844;47.058;15.472;2023-02-18T09:15:09;17.50;;;12.80;;
1693;SDS011;844;47.058;15.472;2023-02-18T09:17:40;17.47;;;14.70;;
1693;SDS011;844;47.058;15.472;2023-02-18T09:20:10;11.63;;;10.43;;
1693;SDS011;844;47.058;15.472;2023-02-18T09:22:41;15.23;;;11.67;;
1693;SDS011;844;47.058;15.472;2023-02-18T09:25:11;11.43;;;10.33;;
1693;SDS011;844;47.058;15.472;2023-02-18T09:27:43;12.47;;;11.03;;
1693;SDS011;844;47.058;15.472;2023-02-18T09:30:13;12.03;;;10.83;;
1693;SDS011;844;47.058;15.472;2023-02-18T09:32:44;13.27;;;11.87;;
1693;SDS011;844;47.058;15.472;2023-02-18T09:35:14;12.07;;;10.60;;
1693;SDS011;844;47.058;15.472;2023-02-18T09:37:45;11.87;;;10.67;;
1693;SDS011;844;47.058;15.472;2023-02-18T09:40:20;15.10;;;11.27;;
1693;SDS011;844;47.058;15.472;2023-02-18T09:42:56;12.67;;;11.33;;
1693;SDS011;844;47.058;15.472;2023-02-18T09:45:26;11.80;;;10.07;;
1693;SDS011;844;47.058;15.472;2023-02-18T09:47:57;12.23;;;9.33;;
1693;SDS011;844;47.058;15.472;2023-02-18T09:50:28;11.47;;;9.13;;
1693;SDS011;844;47.058;15.472;2023-02-18T09:53:00;11.10;;;10.10;;
1693;SDS011;844;47.058;15.472;2023-02-18T09:55:32;8.77;;;8.00;;
1693;SDS011;844;47.058;15.472;2023-02-18T09:58:10;11.63;;;7.73;;
1693;SDS011;844;47.058;15.472;2023-02-18T10:00:43;9.60;;;7.50;;
1693;SDS011;844;47.058;15.472;2023-02-18T10:03:15;9.67;;;8.83;;
1693;SDS011;844;47.058;15.472;2023-02-18T10:05:51;8.90;;;8.00;;
1693;SDS011;844;47.058;15.472;2023-02-18T10:08:24;10.30;;;9.10;;
1693;SDS011;844;47.058;15.472;2023-02-18T10:10:56;12.53;;;8.50;;
1693;SDS011;844;47.058;15.472;2023-02-18T10:13:29;8.87;;;8.07;;
1693;SDS011;844;47.058;15.472;2023-02-18T10:16:01;11.73;;;8.33;;
1693;SDS011;844;47.058;15.472;2023-02-18T10:18:32;10.53;;;8.20;;
1693;SDS011;844;47.058;15.472;2023-02-18T10:21:07;10.93;;;9.83;;
1693;SDS011;844;47.058;15.472;2023-02-18T10:23:40;10.00;;;8.97;;
1693;SDS011;844;47.058;15.472;2023-02-18T10:26:15;8.80;;;7.77;;
1693;SDS011;844;47.058;15.472;2023-02-18T10:28:47;8.87;;;7.77;;
1693;SDS011;844;47.058;15.472;2023-02-18T10:31:19;10.17;;;9.07;;
1693;SDS011;844;47.058;15.472;2023-02-18T10:33:55;8.37;;;7.57;;
1693;SDS011;844;47.058;15.472;2023-02-18T10:36:31;7.30;;;6.27;;
1693;SDS011;844;47.058;15.472;2023-02-18T10:42:05;9.50;;;8.60;;
1693;SDS011;844;47.058;15.472;2023-02-18T10:44:47;8.30;;;7.30;;
1693;SDS011;844;47.058;15.472;2023-02-18T10:47:29;7.20;;;6.50;;
1693;SDS011;844;47.058;15.472;2023-02-18T10:50:10;8.57;;;7.03;;
1693;SDS011;844;47.058;15.472;2023-02-18T10:52:42;6.80;;;6.20;;
1693;SDS011;844;47.058;15.472;2023-02-18T10:55:14;6.63;;;6.03;;
1693;SDS011;844;47.058;15.472;2023-02-18T10:57:45;7.90;;;7.00;;
1693;SDS011;844;47.058;15.472;2023-02-18T11:00:20;8.57;;;7.77;;
1693;SDS011;844;47.058;15.472;2023-02-18T11:03:01;8.33;;;7.27;;
1693;SDS011;844;47.058;15.472;2023-02-18T11:05:38;9.47;;;8.50;;
1693;SDS011;844;47.058;15.472;2023-02-18T11:08:10;9.70;;;8.70;;
1693;SDS011;844;47.058;15.472;2023-02-18T11:10:45;9.83;;;8.83;;
1693;SDS011;844;47.058;15.472;2023-02-18T11:13:16;8.90;;;7.67;;
1693;SDS011;844;47.058;15.472;2023-02-18T11:15:57;14.40;;;7.77;;
1693;SDS011;844;47.058;15.472;2023-02-18T11:18:31;9.87;;;8.87;;
1693;SDS011;844;47.058;15.472;2023-02-18T11:21:09;10.67;;;9.57;;
1693;SDS011;844;47.058;15.472;2023-02-18T11:23:49;10.17;;;9.17;;
1693;SDS011;844;47.058;15.472;2023-02-18T11:26:23;11.90;;;10.40;;
1693;SDS011;844;47.058;15.472;2023-02-18T11:28:56;11.73;;;10.63;;
1693;SDS011;844;47.058;15.472;2023-02-18T11:31:33;10.90;;;9.80;;
1693;SDS011;844;47.058;15.472;2023-02-18T11:34:13;11.93;;;10.73;;
1693;SDS011;844;47.058;15.472;2023-02-18T11:36:45;10.90;;;9.90;;
1693;SDS011;844;47.058;15.472;2023-02-18T11:39:19;10.70;;;9.60;;
1693;SDS011;844;47.058;15.472;2023-02-18T11:41:53;12.50;;;11.40;;
1693;SDS011;844;47.058;15.472;2023-02-18T11:44:26;11.47;;;10.47;;
1693;SDS011;844;47.058;15.472;2023-02-18T11:47:00;11.27;;;10.17;;
1693;SDS011;844;47.058;15.472;2023-02-18T11:49:32;10.07;;;9.27;;
1693;SDS011;844;47.058;15.472;2023-02-18T11:52:04;9.93;;;9.03;;
1693;SDS011;844;47.058;15.472;2023-02-18T11:54:46;10.83;;;9.83;;
1693;SDS011;844;47.058;15.472;2023-02-18T11:57:28;11.70;;;10.53;;
1693;SDS011;844;47.058;15.472;2023-02-18T11:59:58;10.27;;;8.97;;
1693;SDS011;844;47.058;15.472;2023-02-18T12:02:32;10.23;;;8.07;;
1693;SDS011;844;47.058;15.472;2023-02-18T12:05:04;10.10;;;8.40;;
1693;SDS011;844;47.058;15.472;2023-02-18T12:07:41;8.93;;;8.13;;
1693;SDS011;844;47.058;15.472;2023-02-18T12:10:14;9.80;;;8.83;;
1693;SDS011;844;47.058;15.472;2023-02-18T12:12:51;8.50;;;7.80;;
1693;SDS011;844;47.058;15.472;2023-02-18T12:15:27;8.73;;;8.00;;
1693;SDS011;844;47.058;15.472;2023-02-18T12:18:16;9.87;;;8.87;;
1693;SDS011;844;47.058;15.472;2023-02-18T12:23:55;9.80;;;7.93;;
1693;SDS011;844;47.058;15.472;2023-02-18T12:26:31;10.20;;;8.17;;
1693;SDS011;844;47.058;15.472;2023-02-18T12:29:08;9.93;;;8.00;;
1693;SDS011;844;47.058;15.472;2023-02-18T12:31:55;8.93;;;8.03;;
1693;SDS011;844;47.058;15.472;2023-02-18T12:40:50;9.30;;;8.40;;
1693;SDS011;844;47.058;15.472;2023-02-18T12:43:29;9.90;;;9.07;;
1693;SDS011;844;47.058;15.472;2023-02-18T12:46:12;9.37;;;7.90;;
1693;SDS011;844;47.058;15.472;2023-02-18T12:48:54;8.43;;;7.63;;
1693;SDS011;844;47.058;15.472;2023-02-18T12:51:45;8.60;;;7.63;;
1693;SDS011;844;47.058;15.472;2023-02-18T12:54:33;8.17;;;7.37;;
1693;SDS011;844;47.058;15.472;2023-02-18T12:57:28;8.17;;;7.50;;
1693;SDS011;844;47.058;15.472;2023-02-18T13:00:11;8.20;;;7.40;;
1693;SDS011;844;47.058;15.472;2023-02-18T13:03:06;8.97;;;8.03;;
1693;SDS011;844;47.058;15.472;2023-02-18T13:05:52;9.20;;;8.40;;
1693;SDS011;844;47.058;15.472;2023-02-18T13:08:32;9.10;;;7.73;;
1693;SDS011;844;47.058;15.472;2023-02-18T13:11:12;8.20;;;7.50;;
1693;SDS011;844;47.058;15.472;2023-02-18T13:13:54;9.57;;;8.70;;
1693;SDS011;844;47.058;15.472;2023-02-18T13:16:28;11.10;;;8.37;;
1693;SDS011;844;47.058;15.472;2023-02-18T13:19:01;11.27;;;9.20;;
1693;SDS011;844;47.058;15.472;2023-02-18T13:21:35;13.20;;;10.27;;
1693;SDS011;844;47.058;15.472;2023-02-18T13:24:10;8.67;;;7.83;;
1693;SDS011;844;47.058;15.472;2023-02-18T13:26:42;10.00;;;9.10;;
1693;SDS011;844;47.058;15.472;2023-02-18T13:29:18;11.67;;;10.57;;
1693;SDS011;844;47.058;15.472;2023-02-18T13:31:57;9.80;;;8.90;;
1693;SDS011;844;47.058;15.472;2023-02-18T13:34:35;10.20;;;9.13;;
1693;SDS011;844;47.058;15.472;2023-02-18T13:37:11;11.00;;;9.90;;
1693;SDS011;844;47.058;15.472;2023-02-18T13:39:51;10.00;;;9.00;;
1693;SDS011;844;47.058;15.472;2023-02-18T13:42:24;11.33;;;10.13;;
1693;SDS011;844;47.058;15.472;2023-02-18T13:48:00;10.30;;;9.40;;
1693;SDS011;844;47.058;15.472;2023-02-18T13:50:32;10.50;;;9.50;;
1693;SDS011;844;47.058;15.472;2023-02-18T13:53:19;10.73;;;9.73;;
1693;SDS011;844;47.058;15.472;2023-02-18T13:58:40;9.40;;;8.00;;
1693;SDS011;844;47.058;15.472;2023-02-18T14:01:13;11.47;;;10.27;;
1693;SDS011;844;47.058;15.472;2023-02-18T14:03:58;9.60;;;8.60;;
1693;SDS011;844;47.058;15.472;2023-02-18T14:06:30;10.40;;;9.30;;
1693;SDS011;844;47.058;15.472;2023-02-18T14:12:34;10.50;;;9.40;;
1693;SDS011;844;47.058;15.472;2023-02-18T14:18:20;10.40;;;9.40;;
1693;SDS011;844;47.058;15.472;2023-02-18T14:21:02;10.37;;;9.37;;
1693;SDS011;844;47.058;15.472;2023-02-18T14:23:55;12.87;;;9.67;;
1693;SDS011;844;47.058;15.472;2023-02-18T14:26:31;9.90;;;8.87;;
1693;SDS011;844;47.058;15.472;2023-02-18T14:29:07;11.67;;;10.57;;
1693;SDS011;844;47.058;15.472;2023-02-18T14:31:43;15.40;;;9.93;;
1693;SDS011;844;47.058;15.472;2023-02-18T14:37:30;14.47;;;10.13;;
1693;SDS011;844;47.058;15.472;2023-02-18T14:40:14;11.13;;;9.93;;
1693;SDS011;844;47.058;15.472;2023-02-18T14:42:54;11.90;;;10.90;;
1693;SDS011;844;47.058;15.472;2023-02-18T14:45:38;11.20;;;10.13;;
1693;SDS011;844;47.058;15.472;2023-02-18T14:48:27;10.63;;;9.43;;
1693;SDS011;844;47.058;15.472;2023-02-18T14:51:14;9.97;;;9.07;;
1693;SDS011;844;47.058;15.472;2023-02-18T14:53:47;12.53;;;11.10;;
1693;SDS011;844;47.058;15.472;2023-02-18T14:56:17;12.60;;;11.30;;
1693;SDS011;844;47.058;15.472;2023-02-18T14:58:50;12.93;;;11.37;;
1693;SDS011;844;47.058;15.472;2023-02-18T15:01:25;13.27;;;11.97;;
1693;SDS011;844;47.058;15.472;2023-02-18T15:03:57;11.73;;;10.63;;
1693;SDS011;844;47.058;15.472;2023-02-18T15:06:29;12.87;;;11.27;;
1693;SDS011;844;47.058;15.472;2023-02-18T15:09:02;11.37;;;10.37;;
1693;SDS011;844;47.058;15.472;2023-02-18T15:11:42;9.97;;;9.07;;
1693;SDS011;844;47.058;15.472;2023-02-18T15:14:16;13.73;;;10.50;;
1693;SDS011;844;47.058;15.472;2023-02-18T15:16:50;10.93;;;9.93;;
1693;SDS011;844;47.058;15.472;2023-02-18T15:19:22;10.87;;;9.77;;
1693;SDS011;844;47.058;15.472;2023-02-18T15:21:55;11.67;;;10.33;;
1693;SDS011;844;47.058;15.472;2023-02-18T15:24:29;11.63;;;10.33;;
1693;SDS011;844;47.058;15.472;2023-02-18T15:27:02;10.97;;;9.37;;
1693;SDS011;844;47.058;15.472;2023-02-18T15:29:38;10.13;;;9.13;;
1693;SDS011;844;47.058;15.472;2023-02-18T15:32:16;10.00;;;9.00;;
1693;SDS011;844;47.058;15.472;2023-02-18T15:34:49;10.77;;;9.70;;
1693;SDS011;844;47.058;15.472;2023-02-18T15:37:20;9.60;;;8.80;;
1693;SDS011;844;47.058;15.472;2023-02-18T15:39:49;11.80;;;10.00;;
1693;SDS011;844;47.058;15.472;2023-02-18T15:42:22;11.47;;;10.33;;
1693;SDS011;844;47.058;15.472;2023-02-18T15:44:55;9.07;;;8.27;;
1693;SDS011;844;47.058;15.472;2023-02-18T15:47:28;11.47;;;9.30;;
1693;SDS011;844;47.058;15.472;2023-02-18T15:50:00;10.77;;;9.67;;
1693;SDS011;844;47.058;15.472;2023-02-18T15:52:31;11.37;;;10.00;;
1693;SDS011;844;47.058;15.472;2023-02-18T15:55:03;12.00;;;9.47;;
1693;SDS011;844;47.058;15.472;2023-02-18T15:57:35;12.00;;;10.30;;
1693;SDS011;844;47.058;15.472;2023-02-18T16:00:11;12.30;;;10.03;;
1693;SDS011;844;47.058;15.472;2023-02-18T16:02:53;11.80;;;9.90;;
1693;SDS011;844;47.058;15.472;2023-02-18T16:05:25;13.03;;;11.70;;
1693;SDS011;844;47.058;15.472;2023-02-18T16:07:56;12.23;;;11.13;;
1693;SDS011;844;47.058;15.472;2023-02-18T16:10:44;17.93;;;11.80;;
1693;SDS011;844;47.058;15.472;2023-02-18T16:13:17;12.40;;;11.13;;
1693;SDS011;844;47.058;15.472;2023-02-18T16:15:48;10.70;;;9.60;;
1693;SDS011;844;47.058;15.472;2023-02-18T16:21:21;11.40;;;10.20;;
1693;SDS011;844;47.058;15.472;2023-02-18T16:23:58;11.97;;;10.10;;
1693;SDS011;844;47.058;15.472;2023-02-18T16:26:31;14.13;;;10.50;;